Time;durP1;ratioP1;P1;durP2;ratioP2;P2;SDS_P1;SDS_P2;PMS_P1;PMS_P2;Temp;Humidity;BMP_temperature;BMP_pressure;BME280_temperature;BME280_humidity;BME280_pressure;Samples;Min_cycle;Max_cycle;Signal;HPM_P1;HPM_P2
2022/08/29 00:01:50;;;;;;;12.30;11.45;;;;;;;23.01;72.01;100844.84;5037533;27;102296;-50
2022/08/29 00:04:17;;;;;;;10.90;10.18;;;;;;;23.00;72.17;100845.97;5036051;27;103396;-51
2022/08/29 00:06:43;;;;;;;11.07;10.38;;;;;;;23.00;71.95;100834.88;5037185;27;102265;-51
2022/08/29 00:09:10;;;;;;;9.80;9.20;;;;;;;23.00;72.01;100831.31;5035933;27;102691;-51
2022/08/29 00:11:37;;;;;;;11.10;10.45;;;;;;;23.00;71.90;100836.84;5022294;27;102518;-51
2022/08/29 00:14:03;;;;;;;12.23;11.32;;;;;;;23.00;71.82;100834.06;5013667;28;104062;-51
2022/08/29 00:16:31;;;;;;;11.13;10.52;;;;;;;22.99;71.87;100833.28;5016304;28;102051;-51
2022/08/29 00:18:58;;;;;;;;;;;;;;;23.00;71.92;100834.06;5016631;28;102047;-51
2022/08/29 00:21:25;;;;;;;9.82;9.02;;;;;;;22.99;71.90;100827.72;5017603;28;102562;-51
2022/08/29 00:23:52;;;;;;;10.35;9.75;;;;;;;22.99;71.88;100832.47;5028212;27;103950;-51
2022/08/29 00:26:18;;;;;;;10.68;10.02;;;;;;;23.00;71.88;100834.06;5037053;27;102143;-51
2022/08/29 00:28:45;;;;;;;11.18;10.38;;;;;;;22.99;71.81;100832.47;5035744;27;102181;-51
2022/08/29 00:31:11;;;;;;;10.32;9.68;;;;;;;22.99;71.84;100838.03;5037229;27;102291;-51
2022/08/29 00:33:39;;;;;;;12.02;11.23;;;;;;;23.00;71.99;100828.53;5024874;28;103974;-51
2022/08/29 00:36:07;;;;;;;9.52;8.75;;;;;;;23.00;71.80;100842.41;5019110;27;102050;-51
2022/08/29 00:38:34;;;;;;;10.95;10.32;;;;;;;23.00;71.87;100839.63;5035648;27;102202;-51
2022/08/29 00:41:01;;;;;;;10.30;9.40;;;;;;;22.98;71.80;100836.41;5037380;27;102465;-51
2022/08/29 00:43:31;;;;;;;10.57;9.98;;;;;;;22.97;72.10;100835.59;5033777;27;103918;-51
2022/08/29 00:46:08;;;;;;;11.02;10.23;;;;;;;22.98;71.80;100831.66;5035968;27;102252;-51
2022/08/29 00:48:37;;;;;;;10.45;9.77;;;;;;;22.98;71.79;100831.66;5035676;27;102264;-51
2022/08/29 00:51:11;;;;;;;11.02;10.38;;;;;;;22.97;71.90;100834.78;5036041;27;102275;-51
2022/08/29 00:53:41;;;;;;;9.07;8.52;;;;;;;22.99;71.66;100833.28;5035333;27;103831;-51
2022/08/29 00:56:11;;;;;;;10.48;9.77;;;;;;;22.98;71.82;100837.22;5036401;27;102316;-51
2022/08/29 00:58:43;;;;;;;9.82;8.93;;;;;;;22.98;71.85;100830.88;5035693;27;102283;-51
2022/08/29 01:01:10;;;;;;;10.43;9.80;;;;;;;22.99;71.74;100835.25;5033060;27;102578;-51
2022/08/29 01:03:37;;;;;;;10.95;10.38;;;;;;;22.98;71.93;100833.63;5015403;27;103978;-51
2022/08/29 01:06:07;;;;;;;11.30;10.60;;;;;;;22.98;71.90;100836.41;5015884;28;102411;-51
2022/08/29 01:08:34;;;;;;;10.60;9.98;;;;;;;22.98;71.85;100830.88;5014537;27;102580;-50
2022/08/29 01:13:49;;;;;;;10.40;9.60;;;;;;;22.97;71.66;100841.16;5015213;28;103929;-51
2022/08/29 01:16:19;;;;;;;10.32;9.63;;;;;;;22.97;71.84;100845.88;4995398;28;101955;-49
2022/08/29 01:18:50;;;;;;;9.85;9.15;;;;;;;22.97;71.97;100840.31;5005135;28;102244;-51
2022/08/29 01:21:23;;;;;;;10.60;9.90;;;;;;;22.97;71.75;100845.88;5016368;28;102116;-50
2022/08/29 01:23:58;;;;;;;10.13;9.43;;;;;;;22.98;71.67;100836.41;5017142;27;103944;-51
2022/08/29 01:26:29;;;;;;;10.23;9.40;;;;;;;22.97;71.77;100837.56;5035365;27;102298;-51
2022/08/29 01:28:56;;;;;;;10.52;9.82;;;;;;;22.97;71.59;100843.09;5034907;27;102302;-50
2022/08/29 01:31:24;;;;;;;11.27;10.50;;;;;;;22.97;71.89;100846.72;5036248;27;104079;-51
2022/08/29 01:33:53;;;;;;;11.10;10.13;;;;;;;22.98;71.62;100844.75;5029283;27;103947;-51
2022/08/29 01:36:21;;;;;;;10.80;10.10;;;;;;;22.96;71.77;100845.06;5020206;28;102176;-51
2022/08/29 01:38:48;;;;;;;11.43;10.52;;;;;;;22.97;71.82;100845.88;5015011;28;102147;-51
2022/08/29 01:41:16;;;;;;;10.63;9.93;;;;;;;22.97;71.65;100834.78;5035324;27;102280;-51
2022/08/29 01:43:47;;;;;;;10.93;10.20;;;;;;;22.97;71.87;100840.31;5035110;27;104111;-51
2022/08/29 01:46:15;;;;;;;10.30;9.55;;;;;;;22.98;71.63;100841.97;5021768;27;102217;-51
2022/08/29 01:48:45;;;;;;;10.48;9.73;;;;;;;22.97;71.89;100835.59;5003381;28;102028;-51
2022/08/29 01:51:13;;;;;;;10.98;10.32;;;;;;;22.96;71.77;100831.19;5016288;28;101955;-51
2022/08/29 01:53:40;;;;;;;11.88;11.10;;;;;;;22.97;71.79;100829.22;5036612;27;103828;-51
2022/08/29 01:56:12;;;;;;;11.45;10.65;;;;;;;22.96;71.96;100835.94;5055737;27;102193;-51
2022/08/29 01:58:38;;;;;;;11.55;10.80;;;;;;;22.94;71.50;100836.31;5055503;27;102257;-51
2022/08/29 02:01:07;;;;;;;11.60;10.90;;;;;;;22.94;71.62;100832.72;5056290;27;102286;-50
2022/08/29 02:03:35;;;;;;;11.82;10.98;;;;;;;22.95;71.75;100831.56;5056135;27;103977;-50
2022/08/29 02:06:02;;;;;;;9.90;9.30;;;;;;;22.95;71.80;100824.03;5057672;27;102153;-51
2022/08/29 02:08:29;;;;;;;9.93;9.38;;;;;;;22.94;71.97;100825.22;5058696;27;102167;-51
2022/08/29 02:10:57;;;;;;;10.23;9.63;;;;;;;22.95;71.63;100826.00;5039349;27;102709;-51
2022/08/29 02:13:23;;;;;;;12.00;11.23;;;;;;;22.93;71.84;100829.13;5037880;27;104426;-51
2022/08/29 02:15:50;;;;;;;10.27;9.57;;;;;;;22.94;71.75;100829.97;5038438;27;102127;-50
2022/08/29 02:18:18;;;;;;;9.75;9.15;;;;;;;22.94;71.88;100829.97;5037797;27;102249;-50
2022/08/29 02:20:45;;;;;;;10.83;10.23;;;;;;;22.94;71.60;100829.97;5038409;27;102398;-51
2022/08/29 02:23:12;;;;;;;10.00;9.30;;;;;;;22.94;71.71;100836.31;5038179;27;103977;-51
2022/08/29 02:25:40;;;;;;;12.93;11.68;;;;;;;22.92;71.80;100821.97;5038132;28;102401;-51
2022/08/29 02:28:09;;;;;;;11.00;10.23;;;;;;;22.94;71.81;100835.50;5017767;28;102226;-51
2022/08/29 02:30:36;;;;;;;9.93;9.32;;;;;;;22.93;71.47;100829.13;5019346;28;102593;-51
2022/08/29 02:33:02;;;;;;;10.68;9.98;;;;;;;22.94;71.77;100835.50;5017673;28;104008;-51
2022/08/29 02:35:30;;;;;;;10.50;9.80;;;;;;;22.94;71.58;100841.06;5017780;28;102368;-50
2022/08/29 02:37:57;;;;;;;10.65;9.85;;;;;;;22.94;71.50;100838.28;5016509;28;102413;-51
2022/08/29 02:40:26;;;;;;;9.68;8.98;;;;;;;22.94;71.49;100835.50;5018375;28;102276;-50
2022/08/29 02:42:53;;;;;;;10.30;9.68;;;;;;;22.91;71.52;100834.19;5019373;28;103837;-50
2022/08/29 02:45:20;;;;;;;9.75;9.15;;;;;;;22.92;71.54;100844.16;5037107;27;102373;-51
2022/08/29 02:47:48;;;;;;;10.73;10.07;;;;;;;22.92;71.29;100848.91;5037763;27;102153;-51
2022/08/29 02:50:15;;;;;;;10.13;9.43;;;;;;;22.92;71.62;100852.50;5038087;27;102172;-51
2022/08/29 02:52:44;;;;;;;12.30;11.40;;;;;;;22.92;71.72;100848.91;5036443;27;104002;-50
2022/08/29 02:55:13;;;;;;;;;;;;;;;22.92;71.33;100854.47;5037294;27;102541;-51
2022/08/29 02:57:42;;;;;;;8.63;8.02;;;;;;;22.93;71.40;100861.63;5038118;27;102107;-51
2022/08/29 03:00:11;;;;;;;9.82;9.13;;;;;;;22.92;71.58;100851.69;5038921;27;102262;-51
2022/08/29 03:02:39;;;;;;;9.73;9.13;;;;;;;22.92;71.32;100854.47;5036747;27;108111;-50
2022/08/29 03:05:06;;;;;;;9.25;8.65;;;;;;;22.92;71.39;100860.00;5037748;27;102324;-51
2022/08/29 03:07:33;;;;;;;10.18;9.48;;;;;;;22.91;71.55;100861.16;5037750;27;102306;-50
2022/08/29 03:10:01;;;;;;;9.80;9.23;;;;;;;22.92;71.52;100865.56;5038447;27;102107;-50
2022/08/29 03:12:27;;;;;;;9.70;9.10;;;;;;;22.92;71.54;100868.34;5036238;27;103855;-50
2022/08/29 03:14:54;;;;;;;10.98;10.27;;;;;;;22.92;71.81;100869.16;5016626;28;102557;-51
2022/08/29 03:17:21;;;;;;;9.40;8.68;;;;;;;22.91;71.53;100863.94;5023434;27;102327;-50
2022/08/29 03:19:47;;;;;;;10.95;10.30;;;;;;;22.91;71.45;100866.69;5037623;27;102270;-50
2022/08/29 03:22:14;;;;;;;9.90;9.25;;;;;;;22.92;71.52;100868.34;5036124;27;103799;-51
2022/08/29 03:24:41;;;;;;;10.30;9.48;;;;;;;22.92;71.45;100882.22;5036925;27;102027;-50
2022/08/29 03:27:09;;;;;;;10.30;9.60;;;;;;;22.90;71.54;100879.78;5036926;27;102375;-50
2022/08/29 03:29:37;;;;;;;9.02;8.48;;;;;;;22.89;71.40;100883.69;5037488;27;102700;-51
2022/08/29 03:32:04;;;;;;;9.63;9.07;;;;;;;22.91;71.51;100880.56;5036229;27;103803;-50
2022/08/29 03:34:31;;;;;;;10.25;9.55;;;;;;;22.90;71.60;100890.88;5033563;27;102395;-51
2022/08/29 03:36:58;;;;;;;10.23;9.60;;;;;;;22.92;71.58;100885.00;5036899;27;102301;-50
2022/08/29 03:39:25;;;;;;;11.27;10.27;;;;;;;22.91;71.61;100886.13;5037388;27;102394;-51
2022/08/29 03:41:52;;;;;;;10.45;9.75;;;;;;;22.90;71.56;100885.31;5049710;27;104416;-50
2022/08/29 03:44:20;;;;;;;9.73;8.90;;;;;;;22.91;71.65;100891.69;5036406;27;102027;-51
2022/08/29 03:46:48;;;;;;;10.45;9.85;;;;;;;22.89;71.47;100889.22;5037077;27;102449;-51
2022/08/29 03:49:14;;;;;;;11.13;10.20;;;;;;;22.91;71.59;100888.91;5032312;27;102176;-51
2022/08/29 03:51:42;;;;;;;10.35;9.65;;;;;;;22.91;71.69;100892.47;5006041;28;104371;-50
2022/08/29 03:54:08;;;;;;;10.98;10.23;;;;;;;22.89;71.73;100892.00;5025434;27;102021;-50
2022/08/29 03:56:35;;;;;;;11.68;10.77;;;;;;;22.91;71.64;100898.03;5035971;27;102288;-50
2022/08/29 03:59:01;;;;;;;10.00;9.10;;;;;;;22.91;71.47;100897.22;4997489;28;102226;-51
2022/08/29 04:01:30;;;;;;;9.65;9.07;;;;;;;22.91;71.72;100900.00;4995756;28;103991;-51
2022/08/29 04:03:57;;;;;;;9.30;8.80;;;;;;;22.90;71.78;100895.59;4996427;28;102304;-51
2022/08/29 04:06:25;;;;;;;10.82;10.13;;;;;;;22.92;71.69;100901.63;4995835;28;102585;-51
2022/08/29 04:08:52;;;;;;;10.90;10.13;;;;;;;22.93;71.84;100897.69;5017990;27;102149;-50
2022/08/29 04:11:22;;;;;;;9.88;9.30;;;;;;;22.90;71.72;100896.44;5026297;27;103928;-51
2022/08/29 04:13:50;;;;;;;11.20;10.52;;;;;;;22.91;71.62;100902.78;5016036;28;102440;-51
2022/08/29 04:16:19;;;;;;;9.60;8.98;;;;;;;22.91;71.85;100897.22;5015779;28;102280;-51
2022/08/29 04:18:47;;;;;;;9.88;9.27;;;;;;;22.89;71.97;100892.00;5016847;28;102361;-51
2022/08/29 04:21:14;;;;;;;10.20;9.40;;;;;;;22.91;71.72;100905.56;5014522;28;103803;-50
2022/08/29 04:23:41;;;;;;;10.45;9.85;;;;;;;22.91;71.98;100909.13;5002108;28;102391;-50
2022/08/29 04:26:13;;;;;;;10.20;9.32;;;;;;;22.91;71.81;100914.69;5007331;28;102075;-51
2022/08/29 04:28:39;;;;;;;10.10;9.50;;;;;;;22.92;71.75;100909.97;5017360;28;102346;-51
2022/08/29 04:31:11;;;;;;;9.95;9.25;;;;;;;22.91;71.90;100911.09;5008491;28;104102;-51
2022/08/29 04:33:39;;;;;;;10.75;10.15;;;;;;;22.90;72.02;100907.53;5012968;27;102356;-51
2022/08/29 04:36:07;;;;;;;9.95;9.32;;;;;;;22.91;72.00;100911.09;5015312;28;102525;-50
2022/08/29 04:38:35;;;;;;;9.75;9.15;;;;;;;22.92;71.85;100904.41;5016129;28;102211;-50
2022/08/29 04:41:04;;;;;;;10.13;9.43;;;;;;;22.93;72.06;100911.56;5036603;27;103945;-51
2022/08/29 04:43:31;;;;;;;9.85;9.20;;;;;;;22.92;71.96;100901.63;5039909;27;102265;-51
2022/08/29 04:45:58;;;;;;;9.85;9.20;;;;;;;22.92;71.96;100898.88;5035770;27;102577;-51
2022/08/29 04:48:25;;;;;;;9.57;9.02;;;;;;;22.92;72.00;100907.19;5031830;27;102473;-51
2022/08/29 04:50:53;;;;;;;10.57;9.88;;;;;;;22.92;72.04;100905.22;5035306;27;104028;-51
2022/08/29 04:53:21;;;;;;;10.15;9.60;;;;;;;22.93;71.95;100906.03;5021408;27;101983;-51
2022/08/29 04:55:56;;;;;;;9.43;8.77;;;;;;;22.93;71.95;100901.28;5015067;27;102329;-50
2022/08/29 04:58:24;;;;;;;10.55;9.90;;;;;;;22.93;72.05;100900.47;5027605;28;102238;-51
2022/08/29 05:00:50;;;;;;;11.27;10.67;;;;;;;22.94;72.04;100902.13;5035174;27;103921;-51
2022/08/29 05:03:17;;;;;;;10.68;10.07;;;;;;;22.94;72.07;100904.88;5036140;27;102058;-51
2022/08/29 05:05:44;;;;;;;11.93;11.13;;;;;;;22.95;72.13;100906.50;5024140;27;102464;-51
2022/08/29 05:08:11;;;;;;;10.10;9.50;;;;;;;22.93;72.21;100900.47;5016427;28;102102;-51
2022/08/29 05:10:38;;;;;;;9.75;9.15;;;;;;;22.94;72.02;100907.66;5014810;28;104679;-51
2022/08/29 05:13:05;;;;;;;10.77;9.97;;;;;;;22.94;72.10;100907.66;5016013;28;102440;-51
2022/08/29 05:15:32;;;;;;;10.95;10.15;;;;;;;22.94;71.92;100907.66;5014847;28;102844;-50
2022/08/29 05:17:59;;;;;;;11.20;10.48;;;;;;;22.96;72.03;100905.31;5017059;28;103042;-50
2022/08/29 05:20:26;;;;;;;9.90;9.30;;;;;;;22.97;71.88;100904.16;5027279;27;103943;-51
2022/08/29 05:22:52;;;;;;;10.13;9.38;;;;;;;22.98;71.99;100903.81;5033704;27;102237;-50
2022/08/29 05:25:19;;;;;;;9.20;8.60;;;;;;;22.99;71.99;100910.97;5022647;27;102119;-51
2022/08/29 05:27:48;;;;;;;10.65;9.98;;;;;;;22.99;71.91;100910.19;5030914;27;103698;-51
2022/08/29 05:30:16;;;;;;;11.00;10.20;;;;;;;23.00;71.72;100900.69;5016592;28;104219;-50
2022/08/29 05:32:43;;;;;;;10.02;9.43;;;;;;;23.02;71.95;100903.94;5035988;27;102009;-51
2022/08/29 05:35:09;;;;;;;10.95;10.35;;;;;;;23.02;72.05;100913.06;5035990;27;102178;-51
2022/08/29 05:37:36;;;;;;;10.95;10.25;;;;;;;23.02;71.84;100903.94;5038065;27;102099;-51
2022/08/29 05:40:04;;;;;;;11.23;10.63;;;;;;;23.03;71.85;100906.34;5038825;27;104258;-50
2022/08/29 05:42:31;;;;;;;10.05;9.48;;;;;;;23.05;71.75;100908.78;5039560;27;102399;-50
2022/08/29 05:44:59;;;;;;;9.75;9.15;;;;;;;23.07;71.86;100909.22;5039265;27;102064;-50
2022/08/29 05:47:25;;;;;;;11.90;11.07;;;;;;;23.07;71.84;100917.56;5040443;27;102442;-51
2022/08/29 05:49:52;;;;;;;10.73;10.13;;;;;;;23.09;71.67;100920.00;5039161;27;103931;-51
2022/08/29 05:52:19;;;;;;;9.63;9.02;;;;;;;23.10;71.83;100922.41;5040074;27;102251;-51
2022/08/29 05:54:46;;;;;;;10.40;9.80;;;;;;;23.12;71.76;100919.31;5022263;27;102593;-51
2022/08/29 05:57:16;;;;;;;10.35;9.75;;;;;;;23.13;71.69;100916.16;5020224;28;102123;-51
2022/08/29 05:59:43;;;;;;;10.07;9.48;;;;;;;23.14;71.59;100922.50;5019327;28;103919;-51
2022/08/29 06:02:11;;;;;;;10.65;9.98;;;;;;;23.15;71.56;100924.97;5019946;27;102316;-51
2022/08/29 06:04:39;;;;;;;10.85;9.95;;;;;;;23.16;71.36;100926.56;5018882;28;101938;-51
2022/08/29 06:07:07;;;;;;;12.05;11.35;;;;;;;23.17;71.39;100933.72;5025418;27;102290;-51
2022/08/29 06:09:34;;;;;;;10.10;9.50;;;;;;;23.19;71.47;100930.63;5035410;27;103941;-51
2022/08/29 06:12:01;;;;;;;11.70;10.80;;;;;;;23.19;71.44;100942.53;5039453;27;102140;-51
2022/08/29 06:14:28;;;;;;;8.80;8.30;;;;;;;23.21;71.26;100934.63;5039500;27;102209;-51
2022/08/29 06:16:55;;;;;;;11.55;10.85;;;;;;;23.21;71.37;100929.06;5022895;28;103207;-50
2022/08/29 06:19:23;;;;;;;10.73;10.10;;;;;;;23.22;71.34;100935.44;5018171;28;103949;-51
2022/08/29 06:21:49;;;;;;;11.20;10.57;;;;;;;23.22;71.48;100950.16;5019367;28;102153;-51
2022/08/29 06:24:16;;;;;;;9.55;8.70;;;;;;;23.22;71.48;100946.53;5019341;28;102996;-51
2022/08/29 06:26:44;;;;;;;11.77;11.15;;;;;;;23.24;71.25;100950.59;5039119;27;102103;-51
2022/08/29 06:29:11;;;;;;;9.70;9.13;;;;;;;23.26;71.24;100948.28;5038453;27;104055;-51
2022/08/29 06:31:38;;;;;;;9.60;8.85;;;;;;;23.26;71.34;100948.28;5029370;27;102654;-51
2022/08/29 06:34:06;;;;;;;10.75;10.05;;;;;;;23.27;71.33;100952.66;5028700;27;102145;-51
2022/08/29 06:36:35;;;;;;;10.63;9.88;;;;;;;23.28;71.16;100939.59;5039735;27;102125;-51
2022/08/29 06:39:03;;;;;;;;;;;;;;;23.29;71.11;100946.75;5039130;27;103926;-51
2022/08/29 06:41:29;;;;;;;9.35;8.75;;;;;;;23.31;71.21;100950.00;5049082;27;102275;-51
2022/08/29 06:43:56;;;;;;;10.38;9.77;;;;;;;23.31;71.11;100949.19;5058238;27;102389;-50
2022/08/29 06:46:25;;;;;;;10.10;9.45;;;;;;;23.31;71.22;100943.63;5060189;27;102298;-51
2022/08/29 06:48:54;;;;;;;10.93;10.32;;;;;;;23.32;71.08;100959.94;5058479;27;104097;-51
2022/08/29 06:51:20;;;;;;;10.13;9.52;;;;;;;23.33;71.15;100957.97;5059245;27;102204;-51
2022/08/29 06:53:48;;;;;;;11.35;10.65;;;;;;;23.33;71.22;100946.84;5059416;27;102099;-51
2022/08/29 06:56:15;;;;;;;11.38;10.68;;;;;;;23.34;71.10;100954.84;5023509;27;102247;-51
2022/08/29 06:58:42;;;;;;;10.30;9.73;;;;;;;23.35;71.00;100950.09;5018051;28;103833;-51
2022/08/29 07:01:11;;;;;;;11.10;10.32;;;;;;;23.37;70.91;100953.31;5018770;28;101933;-51
2022/08/29 07:03:39;;;;;;;11.10;10.40;;;;;;;23.37;70.88;100959.72;5018243;28;101932;-51
2022/08/29 07:06:07;;;;;;;11.30;10.57;;;;;;;23.38;71.01;100966.06;5019873;28;102743;-51
2022/08/29 07:08:34;;;;;;;10.30;9.70;;;;;;;23.40;70.92;100966.50;5018353;28;104031;-51
2022/08/29 07:11:02;;;;;;;11.32;10.63;;;;;;;23.40;70.79;100964.53;5018924;28;102007;-51
2022/08/29 07:13:30;;;;;;;11.02;10.25;;;;;;;23.41;70.74;100959.81;5016601;28;102563;-51
2022/08/29 07:15:56;;;;;;;11.48;10.68;;;;;;;23.43;70.77;100957.47;5019605;28;102117;-51
2022/08/29 07:18:24;;;;;;;10.87;10.17;;;;;;;23.42;70.77;100966.97;5025441;27;104021;-50
2022/08/29 07:20:51;;;;;;;11.50;10.73;;;;;;;23.43;70.99;100954.69;5034277;27;102196;-51
2022/08/29 07:23:17;;;;;;;10.85;10.05;;;;;;;23.44;70.75;100957.13;5042267;27;102068;-51
2022/08/29 07:25:44;;;;;;;12.85;11.95;;;;;;;23.45;70.57;100960.72;5050833;27;102527;-51
2022/08/29 07:28:12;;;;;;;12.30;11.60;;;;;;;23.46;70.56;100965.09;5021993;27;103884;-51
2022/08/29 07:30:39;;;;;;;12.18;11.38;;;;;;;23.47;70.45;100961.97;5046357;27;102342;-51
2022/08/29 07:33:06;;;;;;;12.43;11.50;;;;;;;23.49;70.44;100972.75;5037517;27;101875;-51
2022/08/29 07:35:33;;;;;;;13.33;12.53;;;;;;;23.51;70.53;100964.84;5039276;27;102241;-51
2022/08/29 07:38:00;;;;;;;13.35;12.57;;;;;;;23.51;70.46;100970.41;5037129;27;103829;-51
2022/08/29 07:40:27;;;;;;;12.60;11.82;;;;;;;23.53;70.50;100967.28;5035504;27;102579;-51
2022/08/29 07:42:53;;;;;;;14.00;13.15;;;;;;;23.53;70.36;100962.53;5044905;27;102056;-51
2022/08/29 07:45:21;;;;;;;12.30;11.40;;;;;;;23.54;70.42;100964.13;5018986;28;102726;-51
2022/08/29 07:47:48;;;;;;;14.07;13.07;;;;;;;23.56;70.16;100969.34;5032552;27;107929;-50
2022/08/29 07:50:15;;;;;;;11.85;10.95;;;;;;;23.56;70.07;100966.59;5037559;27;103095;-50
2022/08/29 07:52:43;;;;;;;13.00;12.03;;;;;;;23.57;69.99;100962.63;5036569;27;102407;-50
2022/08/29 07:55:09;;;;;;;13.48;12.73;;;;;;;23.57;70.06;100963.44;5019331;27;102842;-51
2022/08/29 07:57:36;;;;;;;12.48;11.77;;;;;;;23.58;69.96;100965.03;5035558;27;103946;-50
2022/08/29 08:00:05;;;;;;;12.27;11.57;;;;;;;23.58;69.97;100967.81;5008788;28;102078;-51
2022/08/29 08:02:33;;;;;;;12.30;11.60;;;;;;;23.60;69.80;100967.50;5017193;27;102003;-50
2022/08/29 08:05:00;;;;;;;13.93;12.93;;;;;;;23.60;70.06;100962.72;5044446;27;102150;-51
2022/08/29 08:07:28;;;;;;;12.50;11.80;;;;;;;23.61;69.95;100969.91;5027255;27;104011;-50
2022/08/29 08:09:54;;;;;;;;;;;;;;;23.62;69.97;100968.75;5017501;28;102045;-50
2022/08/29 08:12:24;;;;;;;10.65;10.05;;;;;;;23.63;70.07;100973.16;5015674;27;102016;-51
2022/08/29 08:14:52;;;;;;;10.88;10.25;;;;;;;23.63;69.90;100967.59;5024612;27;102011;-51
2022/08/29 08:17:18;;;;;;;13.38;12.63;;;;;;;23.63;69.75;100967.59;5029201;27;104496;-51
2022/08/29 08:19:46;;;;;;;12.20;11.35;;;;;;;23.65;69.91;100967.22;5023024;28;102273;-51
2022/08/29 08:22:13;;;;;;;12.13;11.23;;;;;;;23.64;69.69;100969.19;5027151;27;102168;-51
2022/08/29 08:24:40;;;;;;;12.32;11.60;;;;;;;23.65;69.99;100970.00;5038497;27;102710;-50
2022/08/29 08:27:06;;;;;;;13.15;12.23;;;;;;;23.65;69.82;100959.69;5034058;27;103870;-51
2022/08/29 08:29:33;;;;;;;12.75;11.95;;;;;;;23.65;69.79;100965.25;5033888;27;102212;-51
2022/08/29 08:31:59;;;;;;;11.65;10.95;;;;;;;23.67;69.43;100967.72;5032279;27;103256;-50
2022/08/29 08:34:28;;;;;;;11.93;11.25;;;;;;;23.67;69.88;100967.72;5032725;27;102340;-51
2022/08/29 08:36:56;;;;;;;15.00;14.10;;;;;;;23.67;69.87;100967.72;5029747;27;103871;-50
2022/08/29 08:39:22;;;;;;;11.95;11.25;;;;;;;23.66;69.61;100969.66;5035946;27;102157;-51
2022/08/29 08:41:54;;;;;;;13.43;12.63;;;;;;;23.68;69.69;100964.56;5035495;27;103026;-51
2022/08/29 08:45:02;;;;;;;14.02;13.13;;;;;;;23.66;69.68;100961.31;5028243;27;102420;-51
2022/08/29 08:47:33;;;;;;;10.93;10.25;;;;;;;23.68;69.76;100961.78;5016109;28;103863;-51
2022/08/29 08:50:03;;;;;;;13.00;12.20;;;;;;;23.67;69.61;100957.41;5033425;27;101970;-51
2022/08/29 08:52:41;;;;;;;12.07;11.38;;;;;;;23.68;69.78;100972.91;5036749;27;102499;-51
2022/08/29 08:55:17;;;;;;;11.50;10.88;;;;;;;23.68;69.53;100964.56;5038421;27;102235;-51
2022/08/29 08:57:58;;;;;;;12.93;12.13;;;;;;;23.68;69.58;100970.13;5036122;27;103906;-51
2022/08/29 09:00:29;;;;;;;11.90;11.20;;;;;;;23.69;69.83;100960.66;5019299;27;101848;-50
2022/08/29 09:03:06;;;;;;;11.70;10.98;;;;;;;23.69;69.79;100966.22;5036513;27;102362;-50
2022/08/29 09:05:46;;;;;;;10.38;9.68;;;;;;;23.68;69.56;100964.56;5032683;27;102042;-51
2022/08/29 09:08:25;;;;;;;11.88;11.23;;;;;;;23.69;69.63;100970.94;5020722;27;104073;-51
2022/08/29 09:10:59;;;;;;;11.75;11.05;;;;;;;23.68;69.70;100961.00;5028587;27;102235;-51
2022/08/29 09:13:40;;;;;;;12.48;11.80;;;;;;;23.68;69.79;100961.78;5039932;27;102347;-51
2022/08/29 09:16:16;;;;;;;11.20;10.40;;;;;;;23.69;69.51;100969.00;5020809;28;102256;-51
2022/08/29 09:18:43;;;;;;;10.75;10.13;;;;;;;23.68;69.68;100967.34;5034688;27;104204;-50
2022/08/29 09:21:13;;;;;;;11.52;10.93;;;;;;;23.67;69.64;100960.19;5019787;27;102612;-50
2022/08/29 09:23:44;;;;;;;11.80;11.13;;;;;;;23.68;69.78;100952.66;5036798;27;102290;-50
2022/08/29 09:26:11;;;;;;;12.15;11.50;;;;;;;23.66;69.59;100955.78;5039787;27;102152;-51
2022/08/29 09:28:39;;;;;;;12.00;11.23;;;;;;;23.67;69.72;100957.41;5039408;27;103957;-51
2022/08/29 09:31:22;;;;;;;10.85;10.13;;;;;;;23.68;69.81;100961.78;5024715;27;101895;-51
2022/08/29 09:33:51;;;;;;;12.90;12.23;;;;;;;23.68;69.68;100959.00;5005153;28;101952;-50
2022/08/29 09:36:38;;;;;;;12.30;11.45;;;;;;;23.68;69.53;100953.47;5000300;28;102176;-51
2022/08/29 09:39:18;;;;;;;10.53;9.87;;;;;;;23.68;69.97;100963.78;5017811;28;108775;-51
2022/08/29 09:41:52;;;;;;;12.00;11.30;;;;;;;23.67;69.68;100951.03;5036718;27;102184;-50
2022/08/29 09:44:24;;;;;;;12.57;11.88;;;;;;;23.67;69.66;100962.16;5039392;27;102269;-50
2022/08/29 09:47:05;;;;;;;11.57;10.98;;;;;;;23.65;69.87;100959.69;5026233;28;102239;-51
2022/08/29 09:49:33;;;;;;;11.70;11.00;;;;;;;23.65;70.04;100959.69;5033980;27;103926;-51
2022/08/29 09:52:09;;;;;;;12.88;12.18;;;;;;;23.64;69.86;100963.63;5026781;27;102059;-51
2022/08/29 09:54:38;;;;;;;10.50;9.90;;;;;;;23.65;69.85;100964.44;5035714;27;102285;-51
2022/08/29 09:57:09;;;;;;;11.23;10.53;;;;;;;23.67;69.84;100964.94;5039171;27;102146;-50
2022/08/29 09:59:38;;;;;;;11.07;10.27;;;;;;;23.67;69.65;100968.53;5036693;27;104250;-50
2022/08/29 10:02:20;;;;;;;10.75;9.93;;;;;;;23.67;69.88;100965.75;5033600;27;101909;-50
2022/08/29 10:04:51;;;;;;;10.98;10.00;;;;;;;23.67;69.82;100965.75;5036852;27;102143;-50
2022/08/29 10:07:22;;;;;;;12.48;11.68;;;;;;;23.69;69.80;100959.81;5024871;27;102478;-51
2022/08/29 10:09:59;;;;;;;12.32;11.55;;;;;;;23.68;69.66;100975.69;5017059;27;104059;-50
2022/08/29 10:12:33;;;;;;;13.07;12.18;;;;;;;23.69;69.12;100966.22;5017141;28;102006;-50
2022/08/29 10:15:03;;;;;;;13.23;12.23;;;;;;;23.71;69.18;100966.66;5033320;28;102448;-50
2022/08/29 10:20:23;;;;;;;12.15;11.27;;;;;;;23.74;68.72;100977.06;4996210;28;108012;-50
2022/08/29 10:22:57;;;;;;;12.35;11.35;;;;;;;23.73;68.58;100969.88;5006917;28;101957;-50
2022/08/29 10:25:35;;;;;;;13.82;12.73;;;;;;;23.75;68.73;100958.41;5015844;28;102406;-50
2022/08/29 10:28:11;;;;;;;12.30;11.20;;;;;;;23.74;68.13;100957.59;5027679;27;102673;-50
2022/08/29 10:30:49;;;;;;;12.70;11.15;;;;;;;23.76;68.00;100964.78;5015646;28;103868;-50
2022/08/29 10:33:30;;;;;;;12.63;11.52;;;;;;;23.73;68.06;100969.88;5037013;27;101978;-50
2022/08/29 10:36:05;;;;;;;12.27;11.10;;;;;;;23.72;68.05;100959.91;5030388;27;102395;-50
2022/08/29 10:38:45;;;;;;;11.73;10.60;;;;;;;23.73;68.32;100972.66;5018888;28;102407;-50
2022/08/29 10:41:23;;;;;;;14.15;12.23;;;;;;;23.74;67.86;100974.28;5025154;27;103581;-51
2022/08/29 10:44:00;;;;;;;12.80;11.60;;;;;;;23.74;68.02;100973.47;5017014;28;102311;-50
2022/08/29 10:46:42;;;;;;;13.07;11.90;;;;;;;23.72;68.34;100965.47;5015982;28;102165;-50
2022/08/29 10:49:18;;;;;;;13.57;12.23;;;;;;;23.70;67.82;100970.59;5017315;28;102213;-50
2022/08/29 10:51:56;;;;;;;14.55;13.20;;;;;;;23.70;68.34;100967.81;5015586;28;104007;-50
2022/08/29 10:54:31;;;;;;;14.70;13.45;;;;;;;23.70;67.66;100961.47;5016754;28;102560;-51
2022/08/29 10:57:02;;;;;;;13.40;12.20;;;;;;;23.73;67.44;100972.66;5018946;28;102915;-50
2022/08/29 10:59:41;;;;;;;14.70;13.15;;;;;;;23.73;67.08;100972.66;5028898;27;102144;-50
2022/08/29 11:02:20;;;;;;;14.02;12.35;;;;;;;23.75;66.92;100975.09;5035675;27;104342;-51
2022/08/29 11:04:49;;;;;;;;;;;;;;;23.74;67.23;100970.69;5031541;27;102176;-50
2022/08/29 11:07:21;;;;;;;14.45;11.88;;;;;;;23.72;67.19;100971.03;5035746;27;102788;-50
2022/08/29 11:09:54;;;;;;;13.52;12.18;;;;;;;23.72;67.14;100971.03;5027049;27;102423;-51
2022/08/29 11:12:32;;;;;;;13.15;11.90;;;;;;;23.72;67.39;100959.91;5016015;28;104035;-50
2022/08/29 11:15:04;;;;;;;12.67;11.63;;;;;;;23.70;67.44;100965.03;5036280;27;102189;-50
2022/08/29 11:17:36;;;;;;;12.10;11.00;;;;;;;23.68;67.91;100950.69;5025431;27;102260;-50
2022/08/29 11:20:10;;;;;;;14.68;13.48;;;;;;;23.70;67.29;100950.34;5037661;27;102871;-50
2022/08/29 11:22:42;;;;;;;13.73;11.57;;;;;;;23.68;67.09;100958.22;5017951;27;104071;-50